createdAt,value
2022-09-11T00:00:02.933Z,13.02
2022-09-11T00:01:02.922Z,13.02
2022-09-11T00:02:02.992Z,12.71
2022-09-11T00:03:02.941Z,13.22
2022-09-11T00:04:02.888Z,13.12
2022-09-11T00:05:02.898Z,12.92
2022-09-11T00:06:02.867Z,12.51
2022-09-11T00:07:02.852Z,12.61
2022-09-11T00:08:02.848Z,13.12
2022-09-11T00:09:02.833Z,13.42
2022-09-11T00:10:02.835Z,12.51
2022-09-11T00:11:02.806Z,12.92
2022-09-11T00:12:02.796Z,13.02
2022-09-11T00:13:02.785Z,14.64
2022-09-11T00:14:02.774Z,13.43
2022-09-11T00:15:02.764Z,13.32
2022-09-11T00:16:02.801Z,13.43
2022-09-11T00:17:02.739Z,13.43
2022-09-11T00:18:02.740Z,13.64
2022-09-11T00:19:02.719Z,14.14
2022-09-11T00:20:02.708Z,13.23
2022-09-11T00:21:02.719Z,13.12
2022-09-11T00:22:02.685Z,12.71
2022-09-11T00:23:02.674Z,12.81
2022-09-11T00:24:02.673Z,13.12
2022-09-11T00:25:02.658Z,12.81
2022-09-11T00:26:02.643Z,13.02
2022-09-11T00:27:02.633Z,13.23
2022-09-11T00:28:02.622Z,13.43
2022-09-11T00:29:02.657Z,13.64
2022-09-11T00:30:02.635Z,13.53
2022-09-11T00:31:02.737Z,13.43
2022-09-11T00:32:02.699Z,14.04
2022-09-11T00:33:02.732Z,13.64
2022-09-11T00:34:02.708Z,14.45
2022-09-11T00:35:02.661Z,14.25
2022-09-11T00:36:02.529Z,14.76
2022-09-11T00:37:02.538Z,15.47
2022-09-11T00:38:02.504Z,14.45
2022-09-11T00:39:02.491Z,14.56
2022-09-11T00:40:02.551Z,15.47
2022-09-11T00:41:02.477Z,16.19
2022-09-11T00:42:02.463Z,14.45
2022-09-11T00:43:02.451Z,14.25
2022-09-11T00:44:02.441Z,13.95
2022-09-11T00:45:02.427Z,14.15
2022-09-11T00:46:02.441Z,16.19
2022-09-11T00:47:02.403Z,14.65
2022-09-11T00:48:02.392Z,15.98
2022-09-11T00:49:02.391Z,15.89
2022-09-11T00:50:02.371Z,15.07
2022-09-11T00:51:02.360Z,15.48
2022-09-11T00:52:02.350Z,16.80
2022-09-11T00:53:02.358Z,15.17
2022-09-11T00:54:02.328Z,15.07
2022-09-11T00:55:02.314Z,14.97
2022-09-11T00:56:02.304Z,14.97
2022-09-11T00:57:02.290Z,14.97
2022-09-11T00:58:02.280Z,14.76
2022-09-11T00:59:02.267Z,14.67
2022-09-11T01:00:02.259Z,13.95
2022-09-11T01:01:02.402Z,14.86
2022-09-11T01:02:02.315Z,14.35
2022-09-11T01:03:02.222Z,14.15
2022-09-11T01:04:02.215Z,13.74
2022-09-11T01:05:02.199Z,13.54
2022-09-11T01:06:02.189Z,13.34
2022-09-11T01:07:02.177Z,13.54
2022-09-11T01:08:02.167Z,13.13
2022-09-11T01:09:02.179Z,13.43
2022-09-11T01:10:02.145Z,13.54
2022-09-11T01:11:02.134Z,13.74
2022-09-11T01:12:02.123Z,13.95
2022-09-11T01:13:02.108Z,14.26
2022-09-11T01:14:02.101Z,13.74
2022-09-11T01:15:02.087Z,13.95
2022-09-11T01:16:02.105Z,14.05
2022-09-11T01:17:02.067Z,15.07
2022-09-11T01:18:02.053Z,15.58
2022-09-11T01:19:02.054Z,16.50
2022-09-11T01:20:02.034Z,15.08
2022-09-11T01:21:02.019Z,14.77
2022-09-11T01:22:02.009Z,14.77
2022-09-11T01:23:01.997Z,14.76
2022-09-11T01:24:01.987Z,14.36
2022-09-11T01:25:01.997Z,14.76
2022-09-11T01:26:01.963Z,14.46
2022-09-11T01:27:01.953Z,15.28
2022-09-11T01:28:01.940Z,14.36
2022-09-11T01:29:01.928Z,15.07
2022-09-11T01:30:01.920Z,14.36
2022-09-11T01:31:01.905Z,14.97
2022-09-11T01:32:01.898Z,14.77
2022-09-11T01:33:01.894Z,15.89
2022-09-11T01:34:01.875Z,15.79
2022-09-11T01:35:01.870Z,15.38
2022-09-11T01:36:01.851Z,16.51
2022-09-11T01:37:01.837Z,16.82
2022-09-11T01:38:01.826Z,16.61
2022-09-11T01:39:01.814Z,16.31
2022-09-11T01:40:01.832Z,15.49
2022-09-11T01:41:01.816Z,15.19
2022-09-11T01:42:01.791Z,16.82
2022-09-11T01:43:01.770Z,16.20
2022-09-11T01:44:01.759Z,17.02
2022-09-11T01:45:01.748Z,16.51
2022-09-11T01:46:01.819Z,15.70
2022-09-11T01:47:01.723Z,16.61
2022-09-11T01:48:01.716Z,16.20
2022-09-11T01:49:01.702Z,15.80
2022-09-11T01:50:01.690Z,16.00
2022-09-11T01:51:01.678Z,15.29
2022-09-11T01:52:01.669Z,15.09
2022-09-11T01:53:01.655Z,15.18
2022-09-11T01:54:01.648Z,14.67
2022-09-11T01:55:01.652Z,14.06
2022-09-11T01:56:01.626Z,14.05
2022-09-11T01:57:01.635Z,14.05
2022-09-11T01:58:01.603Z,14.05
2022-09-11T01:59:01.588Z,14.05
2022-09-11T02:00:01.579Z,14.05
2022-09-11T02:01:01.589Z,14.15
2022-09-11T02:02:01.626Z,14.26
2022-09-11T02:03:01.544Z,14.05
2022-09-11T02:04:01.535Z,13.95
2022-09-11T02:05:01.520Z,13.85
2022-09-11T02:06:01.511Z,13.54
2022-09-11T02:07:01.497Z,13.65
2022-09-11T02:08:01.490Z,13.44
2022-09-11T02:09:01.478Z,13.24
2022-09-11T02:10:01.470Z,13.13
2022-09-11T02:11:01.452Z,12.83
2022-09-11T02:12:01.442Z,13.03
2022-09-11T02:13:01.455Z,12.82
2022-09-11T02:14:01.418Z,13.03
2022-09-11T02:15:01.406Z,12.93
2022-09-11T02:16:01.462Z,12.62
2022-09-11T02:17:01.385Z,12.72
2022-09-11T02:18:01.374Z,12.52
2022-09-11T02:19:01.363Z,12.62
2022-09-11T02:20:01.351Z,12.72
2022-09-11T02:21:01.339Z,12.52
2022-09-11T02:22:01.328Z,12.52
2022-09-11T02:23:01.315Z,12.32
2022-09-11T02:24:01.309Z,12.52
2022-09-11T02:25:01.295Z,12.72
2022-09-11T02:26:01.284Z,12.93
2022-09-11T02:27:01.274Z,13.13
2022-09-11T02:28:01.264Z,13.04
2022-09-11T02:29:01.277Z,14.26
2022-09-11T02:30:01.240Z,13.24
2022-09-11T02:31:01.228Z,14.46
2022-09-11T02:32:01.219Z,14.05
2022-09-11T02:33:01.204Z,13.55
2022-09-11T02:34:01.193Z,13.65
2022-09-11T02:35:01.181Z,15.28
2022-09-11T02:36:01.173Z,14.37
2022-09-11T02:37:01.159Z,14.58
2022-09-11T02:38:01.148Z,14.78
2022-09-11T02:39:01.136Z,15.90
2022-09-11T02:40:01.160Z,16.62
2022-09-11T02:41:01.114Z,16.11
2022-09-11T02:42:01.103Z,16.01
2022-09-11T02:43:01.091Z,15.91
2022-09-11T02:44:01.083Z,15.81
2022-09-11T02:45:01.090Z,15.50
2022-09-11T02:46:01.117Z,15.50
2022-09-11T02:47:01.046Z,15.50
2022-09-11T02:48:01.036Z,15.30
2022-09-11T02:49:01.024Z,15.30
2022-09-11T02:50:01.017Z,15.19
2022-09-11T02:51:00.999Z,15.70
2022-09-11T02:52:00.990Z,15.81
2022-09-11T02:53:00.976Z,15.81
2022-09-11T02:54:00.970Z,15.50
2022-09-11T02:55:00.955Z,16.63
2022-09-11T02:56:00.945Z,17.55
2022-09-11T02:57:00.934Z,15.92
2022-09-11T02:58:00.922Z,16.02
2022-09-11T02:59:00.911Z,16.02
2022-09-11T03:00:00.899Z,15.61
2022-09-11T03:01:00.987Z,14.99
2022-09-11T03:02:00.943Z,15.30
2022-09-11T03:03:00.864Z,14.99
2022-09-11T03:04:00.855Z,15.50
2022-09-11T03:05:00.841Z,15.50
2022-09-11T03:06:00.831Z,15.30
2022-09-11T03:07:00.819Z,14.99
2022-09-11T03:08:00.814Z,15.30
2022-09-11T03:09:00.795Z,15.09
2022-09-11T03:10:00.791Z,15.91
2022-09-11T03:11:00.773Z,15.40
2022-09-11T03:12:00.765Z,16.42
2022-09-11T03:13:00.759Z,15.71
2022-09-11T03:14:00.741Z,16.22
2022-09-11T03:15:00.729Z,16.33
2022-09-11T03:16:00.746Z,16.02
2022-09-11T03:17:00.726Z,16.02
2022-09-11T03:18:00.697Z,16.12
2022-09-11T03:19:00.681Z,15.51
2022-09-11T03:20:00.673Z,15.41
2022-09-11T03:21:00.659Z,15.19
2022-09-11T03:22:00.649Z,15.30
2022-09-11T03:23:00.636Z,15.09
2022-09-11T03:24:00.629Z,14.69
2022-09-11T03:25:00.623Z,14.48
2022-09-11T03:26:00.605Z,14.27
2022-09-11T03:27:00.592Z,13.76
2022-09-11T03:28:00.580Z,13.96
2022-09-11T03:29:00.569Z,13.75
2022-09-11T03:30:00.559Z,13.65
2022-09-11T03:31:00.546Z,13.55
2022-09-11T03:32:00.644Z,13.35
2022-09-11T03:33:00.547Z,13.24
2022-09-11T03:34:00.513Z,13.24
2022-09-11T03:35:00.501Z,12.94
2022-09-11T03:36:00.498Z,12.93
2022-09-11T03:37:00.481Z,12.83
2022-09-11T03:38:00.480Z,12.83
2022-09-11T03:39:00.460Z,12.63
2022-09-11T03:40:00.506Z,12.42
2022-09-11T03:41:00.435Z,12.32
2022-09-11T03:42:00.421Z,12.21
2022-09-11T03:43:00.413Z,12.01
2022-09-11T03:44:00.401Z,11.91
2022-09-11T03:45:00.390Z,11.91
2022-09-11T03:46:00.421Z,11.70
2022-09-11T03:47:00.372Z,11.60
2022-09-11T03:48:00.354Z,11.40
2022-09-11T03:49:00.366Z,11.40
2022-09-11T03:50:00.333Z,11.29
2022-09-11T03:51:00.324Z,11.29
2022-09-11T03:52:00.307Z,11.29
2022-09-11T03:53:00.301Z,11.09
2022-09-11T03:54:00.285Z,11.09
2022-09-11T03:55:00.284Z,10.88
2022-09-11T03:56:00.267Z,10.88
2022-09-11T03:57:00.253Z,10.78
2022-09-11T03:58:00.241Z,10.78
2022-09-11T03:59:00.259Z,10.68
2022-09-11T04:00:00.220Z,10.68
2022-09-11T04:01:00.287Z,10.58
2022-09-11T04:02:00.277Z,10.58
2022-09-11T04:03:00.186Z,10.47
2022-09-11T04:04:00.174Z,10.47
2022-09-11T04:05:00.198Z,10.47
2022-09-11T04:06:00.151Z,10.37
2022-09-11T04:07:00.141Z,10.27
2022-09-11T04:08:00.131Z,10.27
2022-09-11T04:09:00.130Z,10.27
2022-09-11T04:10:00.111Z,10.27
2022-09-11T04:11:00.100Z,10.17
2022-09-11T04:12:00.091Z,10.17
2022-09-11T04:13:00.073Z,10.06
2022-09-11T04:14:00.064Z,10.06
2022-09-11T04:15:00.053Z,10.06
2022-09-11T04:16:00.138Z,9.97
2022-09-11T04:17:00.031Z,9.97
2022-09-11T04:18:04.782Z,9.86
2022-09-11T04:19:00.008Z,9.86
2022-09-11T04:19:59.993Z,9.86
2022-09-11T04:21:00.011Z,9.76
2022-09-11T04:21:59.973Z,9.76
2022-09-11T04:22:59.961Z,9.66
2022-09-11T04:23:59.950Z,9.66
2022-09-11T04:24:59.940Z,9.66
2022-09-11T04:25:59.926Z,9.66
2022-09-11T04:27:00.845Z,9.66
2022-09-11T04:27:59.903Z,9.66
2022-09-11T04:28:59.892Z,9.66
2022-09-11T04:29:59.881Z,9.56
2022-09-11T04:30:59.871Z,9.56
2022-09-11T04:31:59.870Z,9.56
2022-09-11T04:32:59.849Z,9.56
2022-09-11T04:33:59.835Z,9.45
2022-09-11T04:34:59.827Z,9.45
2022-09-11T04:35:59.814Z,9.45
2022-09-11T04:36:59.835Z,9.36
2022-09-11T04:37:59.791Z,9.36
2022-09-11T04:38:59.783Z,9.36
2022-09-11T04:39:59.805Z,9.25
2022-09-11T04:40:59.761Z,9.25
2022-09-11T04:41:59.745Z,9.15
2022-09-11T04:42:59.737Z,9.15
2022-09-11T04:44:04.454Z,9.15
2022-09-11T04:44:59.713Z,9.15
2022-09-11T04:45:59.735Z,9.05
2022-09-11T04:46:59.693Z,9.05
2022-09-11T04:47:59.677Z,8.94
2022-09-11T04:48:59.673Z,8.94
2022-09-11T04:49:59.654Z,8.94
2022-09-11T04:50:59.645Z,8.94
2022-09-11T04:51:59.636Z,8.84
2022-09-11T04:52:59.647Z,8.84
2022-09-11T04:53:59.608Z,8.84
2022-09-11T04:54:59.601Z,8.84
2022-09-11T04:55:59.587Z,8.74
2022-09-11T04:56:59.578Z,8.64
2022-09-11T04:57:59.566Z,8.64
2022-09-11T04:58:59.555Z,8.64
2022-09-11T04:59:59.541Z,8.64
2022-09-11T05:00:59.586Z,8.64
2022-09-11T05:01:59.572Z,8.54
2022-09-11T05:02:59.508Z,8.54
2022-09-11T05:03:59.497Z,8.54
2022-09-11T05:04:59.486Z,8.44
2022-09-11T05:05:59.487Z,8.44
2022-09-11T05:06:59.469Z,8.44
2022-09-11T05:07:59.451Z,8.33
2022-09-11T05:08:59.468Z,8.23
2022-09-11T05:09:59.429Z,8.23
2022-09-11T05:10:59.420Z,8.23
2022-09-11T05:11:59.411Z,8.23
2022-09-11T05:12:59.395Z,8.13
2022-09-11T05:13:59.385Z,8.13
2022-09-11T05:14:59.391Z,8.12
2022-09-11T05:15:59.363Z,8.13
2022-09-11T05:16:59.351Z,8.03
2022-09-11T05:17:59.340Z,8.03
2022-09-11T05:18:59.331Z,7.92
2022-09-11T05:19:59.315Z,7.92
2022-09-11T05:20:59.310Z,7.82
2022-09-11T05:21:59.294Z,7.82
2022-09-11T05:22:59.284Z,7.72
2022-09-11T05:23:59.271Z,7.72
2022-09-11T05:24:59.286Z,7.72
2022-09-11T05:25:59.260Z,7.62
2022-09-11T05:26:59.237Z,7.62
2022-09-11T05:27:59.225Z,7.62
2022-09-11T05:28:59.213Z,7.62
2022-09-11T05:29:59.202Z,7.51
2022-09-11T05:30:59.194Z,7.51
2022-09-11T05:31:59.216Z,7.51
2022-09-11T05:32:59.170Z,7.51
2022-09-11T05:33:59.158Z,7.42
2022-09-11T05:34:59.146Z,7.42
2022-09-11T05:35:59.136Z,7.31
2022-09-11T05:36:59.123Z,7.21
2022-09-11T05:37:59.114Z,7.21
2022-09-11T05:38:59.102Z,7.31
2022-09-11T05:39:59.156Z,7.11
2022-09-11T05:40:59.103Z,7.21
2022-09-11T05:41:59.068Z,7.21
2022-09-11T05:42:59.058Z,7.21
2022-09-11T05:43:59.044Z,7.21
2022-09-11T05:44:59.031Z,7.11
2022-09-11T05:45:59.035Z,7.11
2022-09-11T05:46:59.013Z,7.01
2022-09-11T05:47:59.006Z,7.01
2022-09-11T05:48:59.008Z,6.90
2022-09-11T05:49:58.974Z,6.80
2022-09-11T05:50:58.966Z,6.70
2022-09-11T05:51:58.957Z,6.60
2022-09-11T05:52:58.945Z,6.60
2022-09-11T05:53:58.932Z,6.49
2022-09-11T05:54:58.922Z,6.39
2022-09-11T05:55:58.911Z,6.29
2022-09-11T05:56:58.928Z,6.19
2022-09-11T05:57:58.890Z,6.09
2022-09-11T05:58:58.887Z,5.99
2022-09-11T05:59:58.876Z,5.88
2022-09-11T06:00:58.890Z,5.78
2022-09-11T06:01:58.872Z,5.68
2022-09-11T06:02:58.836Z,5.58
2022-09-11T06:03:58.821Z,5.38
2022-09-11T06:04:58.815Z,5.17
2022-09-11T06:05:58.802Z,5.17
2022-09-11T06:06:58.796Z,5.17
2022-09-11T06:07:58.780Z,5.07
2022-09-11T06:08:58.770Z,5.07
2022-09-11T06:10:02.969Z,5.07
2022-09-11T06:10:58.760Z,5.07
2022-09-11T06:11:58.736Z,4.97
2022-09-11T06:12:58.747Z,4.97
2022-09-11T06:13:58.709Z,4.87
2022-09-11T06:14:58.705Z,4.66
2022-09-11T06:15:58.685Z,4.77
2022-09-11T06:16:58.723Z,4.66
2022-09-11T06:17:58.664Z,4.87
2022-09-11T06:18:58.655Z,4.66
2022-09-11T06:19:58.644Z,4.57
2022-09-11T06:20:58.629Z,4.77
2022-09-11T06:21:58.634Z,4.66
2022-09-11T06:22:58.609Z,4.66
2022-09-11T06:23:58.596Z,4.66
2022-09-11T06:24:58.586Z,4.77
2022-09-11T06:25:58.572Z,4.66
2022-09-11T06:26:58.566Z,4.66
2022-09-11T06:27:58.551Z,4.77
2022-09-11T06:28:58.562Z,4.77
2022-09-11T06:29:58.526Z,4.77
2022-09-11T06:30:58.612Z,4.66
2022-09-11T06:31:58.504Z,4.57
2022-09-11T06:32:58.516Z,4.46
2022-09-11T06:33:58.498Z,4.46
2022-09-11T06:34:58.471Z,4.36
2022-09-11T06:35:58.461Z,4.25
2022-09-11T06:36:58.448Z,3.85
2022-09-11T06:37:58.436Z,3.85
2022-09-11T06:38:58.431Z,3.96
2022-09-11T06:39:58.458Z,3.55
2022-09-11T06:40:58.403Z,3.65
2022-09-11T06:41:58.389Z,3.64
2022-09-11T06:42:58.380Z,3.44
2022-09-11T06:43:58.388Z,3.44
2022-09-11T06:44:58.394Z,3.14
2022-09-11T06:45:58.413Z,3.24
2022-09-11T06:46:58.336Z,3.14
2022-09-11T06:47:58.323Z,2.94
2022-09-11T06:48:58.313Z,2.73
2022-09-11T06:49:58.301Z,2.73
2022-09-11T06:50:58.290Z,2.63
2022-09-11T06:51:58.278Z,2.63
2022-09-11T06:52:58.266Z,2.43
2022-09-11T06:53:58.314Z,2.53
2022-09-11T06:54:58.254Z,2.53
2022-09-11T06:55:58.250Z,2.33
2022-09-11T06:56:58.230Z,2.23
2022-09-11T06:57:58.209Z,2.23
2022-09-11T06:58:58.201Z,2.23
2022-09-11T06:59:58.189Z,2.33
2022-09-11T07:00:58.295Z,2.03
2022-09-11T07:01:58.289Z,1.92
2022-09-11T07:02:58.154Z,1.92
2022-09-11T07:03:58.143Z,1.92
2022-09-11T07:04:58.131Z,1.82
2022-09-11T07:05:58.120Z,1.72
2022-09-11T07:06:58.133Z,1.51
2022-09-11T07:07:58.098Z,1.01
2022-09-11T07:08:58.088Z,1.11
2022-09-11T07:09:58.076Z,1.01
2022-09-11T07:10:58.070Z,1.01
2022-09-11T07:11:58.056Z,0.10
2022-09-11T07:12:58.051Z,0.40
2022-09-11T07:13:58.033Z,0.30
2022-09-11T07:14:58.023Z,0.00
2022-09-11T07:15:58.008Z,0.00
2022-09-11T07:16:58.021Z,0.00
2022-09-11T07:17:57.994Z,0.00
2022-09-11T07:18:58.003Z,0.00
2022-09-11T07:19:57.963Z,0.00
2022-09-11T07:20:57.953Z,0.00
2022-09-11T07:21:57.940Z,0.00
2022-09-11T07:22:57.934Z,0.00
2022-09-11T07:23:57.922Z,0.00
2022-09-11T07:24:57.906Z,0.00
2022-09-11T07:25:57.894Z,0.00
2022-09-11T07:26:57.887Z,0.00
2022-09-11T07:27:57.934Z,0.00
2022-09-11T07:28:57.878Z,0.00
2022-09-11T07:29:57.877Z,0.00
2022-09-11T07:30:57.882Z,0.00
2022-09-11T07:31:57.844Z,0.00
2022-09-11T07:32:57.876Z,0.00
2022-09-11T07:33:57.845Z,0.00
2022-09-11T07:34:57.874Z,0.00
2022-09-11T07:35:57.879Z,0.00
2022-09-11T07:36:57.899Z,0.00
2022-09-11T07:37:57.915Z,0.00
2022-09-11T07:38:57.832Z,0.00
2022-09-11T07:39:57.846Z,0.00
2022-09-11T07:40:57.764Z,0.00
2022-09-11T07:41:57.746Z,0.00
2022-09-11T07:42:57.713Z,0.00
2022-09-11T07:43:57.703Z,0.00
2022-09-11T07:44:57.694Z,0.00
2022-09-11T07:45:57.716Z,0.20
2022-09-11T07:46:57.662Z,0.00
2022-09-11T07:47:57.648Z,0.00
2022-09-11T07:48:57.659Z,0.00
2022-09-11T07:49:57.626Z,0.00
2022-09-11T07:50:57.615Z,3.33
2022-09-11T07:51:57.634Z,0.60
2022-09-11T07:52:57.623Z,0.81
2022-09-11T07:53:57.584Z,4.64
2022-09-11T07:54:57.574Z,1.72
2022-09-11T07:55:57.563Z,1.81
2022-09-11T07:56:57.552Z,0.81
2022-09-11T07:57:57.540Z,3.12
2022-09-11T07:58:57.528Z,4.24
2022-09-11T07:59:57.516Z,2.72
2022-09-11T08:00:57.544Z,5.95
2022-09-11T08:01:57.589Z,6.05
2022-09-11T08:02:57.494Z,6.96
2022-09-11T08:03:57.481Z,12.01
2022-09-11T08:04:57.486Z,14.73
2022-09-11T08:05:57.451Z,18.98
2022-09-11T08:06:57.438Z,14.14
2022-09-11T08:07:57.430Z,6.46
2022-09-11T08:08:57.416Z,14.20
2022-09-11T08:10:23.282Z,20.01
2022-09-11T08:10:58.571Z,35.05
2022-09-11T08:11:57.387Z,43.04
2022-09-11T08:12:59.816Z,50.86
2022-09-11T08:13:57.373Z,62.80
2022-09-11T08:14:58.140Z,64.65
2022-09-11T08:15:57.339Z,69.32
2022-09-11T08:16:57.328Z,72.19
2022-09-11T08:17:57.323Z,73.96
2022-09-11T08:18:57.306Z,77.83
2022-09-11T08:19:57.296Z,77.29
2022-09-11T08:20:57.308Z,78.42
2022-09-11T08:21:57.273Z,86.27
2022-09-11T08:22:58.070Z,91.87
2022-09-11T08:23:57.281Z,93.66
2022-09-11T08:24:57.257Z,91.73
2022-09-11T08:25:57.251Z,96.16
2022-09-11T08:26:57.233Z,90.56
2022-09-11T08:27:57.222Z,94.30
2022-09-11T08:28:57.202Z,90.48
2022-09-11T08:29:57.189Z,88.07
2022-09-11T08:30:57.222Z,86.96
2022-09-11T08:32:01.610Z,85.13
2022-09-11T08:32:57.154Z,83.47
2022-09-11T08:33:57.144Z,81.90
2022-09-11T08:34:57.130Z,81.20
2022-09-11T08:35:57.122Z,83.31
2022-09-11T08:36:57.132Z,84.45
2022-09-11T08:37:57.102Z,81.74
2022-09-11T08:38:57.086Z,82.64
2022-09-11T08:39:57.161Z,81.24
2022-09-11T08:40:57.067Z,80.13
2022-09-11T08:41:57.054Z,80.83
2022-09-11T08:42:57.046Z,80.68
2022-09-11T08:43:57.034Z,80.57
2022-09-11T08:44:57.019Z,80.27
2022-09-11T08:45:57.073Z,78.03
2022-09-11T08:46:57.012Z,79.53
2022-09-11T08:47:56.987Z,84.67
2022-09-11T08:48:56.977Z,90.52
2022-09-11T08:49:56.969Z,90.00
2022-09-11T08:50:56.958Z,95.70
2022-09-11T08:51:56.943Z,94.69
2022-09-11T08:52:56.954Z,91.83
2022-09-11T08:53:56.938Z,92.13
2022-09-11T08:54:56.913Z,90.88
2022-09-11T08:55:56.908Z,92.82
2022-09-11T08:56:56.899Z,92.07
2022-09-11T08:57:56.891Z,89.69
2022-09-11T08:58:56.868Z,86.62
2022-09-11T08:59:56.854Z,83.25
2022-09-11T09:00:56.864Z,84.80
2022-09-11T09:01:56.936Z,84.13
2022-09-11T09:02:56.821Z,81.62
2022-09-11T09:03:56.814Z,79.41
2022-09-11T09:04:56.806Z,79.64
2022-09-11T09:05:56.791Z,79.14
2022-09-11T09:06:56.776Z,79.30
2022-09-11T09:07:56.772Z,77.70
2022-09-11T09:08:56.795Z,80.91
2022-09-11T09:09:56.751Z,81.41
2022-09-11T09:10:56.732Z,83.09
2022-09-11T09:11:56.727Z,86.16
2022-09-11T09:12:56.716Z,93.27
2022-09-11T09:13:56.700Z,95.58
2022-09-11T09:14:56.690Z,96.14
2022-09-11T09:15:56.770Z,96.55
2022-09-11T09:16:56.673Z,97.24
2022-09-11T09:17:56.659Z,96.29
2022-09-11T09:18:56.663Z,96.04
2022-09-11T09:19:56.669Z,96.18
2022-09-11T09:20:56.621Z,96.14
2022-09-11T09:21:56.611Z,96.84
2022-09-11T09:22:56.600Z,95.28
2022-09-11T09:23:56.592Z,94.12
2022-09-11T09:24:56.603Z,94.02
2022-09-11T09:25:56.568Z,93.02
2022-09-11T09:26:56.557Z,93.52
2022-09-11T09:27:56.549Z,94.53
2022-09-11T09:28:56.535Z,91.02
2022-09-11T09:29:56.529Z,91.92
2022-09-11T09:30:56.598Z,93.62
2022-09-11T09:31:56.520Z,90.16
2022-09-11T09:32:56.515Z,91.97
2022-09-11T09:33:56.483Z,94.67
2022-09-11T09:34:56.832Z,93.31
2022-09-11T09:35:56.459Z,95.58
2022-09-11T09:36:56.448Z,97.24
2022-09-11T09:37:56.437Z,97.58
2022-09-11T09:38:56.423Z,97.43
2022-09-11T09:39:56.461Z,96.68
2022-09-11T09:40:56.427Z,96.64
2022-09-11T09:41:56.392Z,97.44
2022-09-11T09:42:56.384Z,97.03
2022-09-11T09:43:56.373Z,97.34
2022-09-11T09:44:56.432Z,97.53
2022-09-11T09:45:56.395Z,96.89
2022-09-11T09:46:56.344Z,97.09
2022-09-11T09:47:56.327Z,97.09
2022-09-11T09:48:56.313Z,96.99
2022-09-11T09:49:56.304Z,97.24
2022-09-11T09:50:56.297Z,96.99
2022-09-11T09:51:58.097Z,96.49
2022-09-11T09:52:56.267Z,96.94
2022-09-11T09:53:56.260Z,97.08
2022-09-11T09:54:56.249Z,97.13
2022-09-11T09:55:56.285Z,96.73
2022-09-11T09:56:56.266Z,96.47
2022-09-11T09:57:56.228Z,94.87
2022-09-11T09:58:56.211Z,96.02
2022-09-11T09:59:56.202Z,96.12
2022-09-11T10:00:56.189Z,95.36
2022-09-11T10:01:56.275Z,95.91
2022-09-11T10:02:56.163Z,95.81
2022-09-11T10:03:56.162Z,95.61
2022-09-11T10:04:56.955Z,97.02
2022-09-11T10:05:56.170Z,97.14
2022-09-11T10:06:56.135Z,94.56
2022-09-11T10:07:56.112Z,96.20
2022-09-11T10:08:59.053Z,90.33
2022-09-11T10:09:56.082Z,81.14
2022-09-11T10:10:56.082Z,79.17
2022-09-11T10:11:56.081Z,72.31
2022-09-11T10:13:13.046Z,68.33
2022-09-11T10:13:57.071Z,63.15
2022-09-11T10:14:56.043Z,60.37
2022-09-11T10:15:56.059Z,61.53
2022-09-11T10:16:56.026Z,60.19
2022-09-11T10:17:56.033Z,57.46
2022-09-11T10:18:55.988Z,55.72
2022-09-11T10:19:55.985Z,56.81
2022-09-11T10:20:55.984Z,53.55
2022-09-11T10:21:55.959Z,53.75
2022-09-11T10:22:55.949Z,54.10
2022-09-11T10:23:56.350Z,59.44
2022-09-11T10:24:55.924Z,65.58
2022-09-11T10:25:55.915Z,71.45
2022-09-11T10:26:55.904Z,76.79
2022-09-11T10:27:55.911Z,73.88
2022-09-11T10:28:55.908Z,77.31
2022-09-11T10:29:55.888Z,78.53
2022-09-11T10:30:55.903Z,72.17
2022-09-11T10:31:55.857Z,64.83
2022-09-11T10:32:59.006Z,57.79
2022-09-11T10:33:55.835Z,59.35
2022-09-11T10:34:55.818Z,56.28
2022-09-11T10:35:55.808Z,56.57
2022-09-11T10:36:55.801Z,55.76
2022-09-11T10:37:55.794Z,54.37
2022-09-11T10:38:55.775Z,54.61
2022-09-11T10:39:55.956Z,53.38
2022-09-11T10:40:55.808Z,53.82
2022-09-11T10:41:55.746Z,54.02
2022-09-11T10:42:55.734Z,54.29
2022-09-11T10:43:55.726Z,52.04
2022-09-11T10:44:55.731Z,48.93
2022-09-11T10:45:55.763Z,48.14
2022-09-11T10:46:55.695Z,50.83
2022-09-11T10:47:55.685Z,51.10
2022-09-11T10:48:55.674Z,51.20
2022-09-11T10:49:55.665Z,52.86
2022-09-11T10:50:55.735Z,55.09
2022-09-11T10:51:56.093Z,57.42
2022-09-11T10:52:55.629Z,59.53
2022-09-11T10:53:55.620Z,55.56
2022-09-11T10:54:55.610Z,54.07
2022-09-11T10:55:55.598Z,56.93
2022-09-11T10:56:55.736Z,56.68
2022-09-11T10:57:55.579Z,53.82
2022-09-11T10:58:55.565Z,54.99
2022-09-11T10:59:55.563Z,56.08
2022-09-11T11:00:55.573Z,52.22
2022-09-11T11:01:55.762Z,51.97
2022-09-11T11:02:55.826Z,50.59
2022-09-11T11:03:55.511Z,50.93
2022-09-11T11:04:55.504Z,49.22
2022-09-11T11:05:55.490Z,47.63
2022-09-11T11:06:55.499Z,48.36
2022-09-11T11:07:55.471Z,48.90
2022-09-11T11:08:55.460Z,48.51
2022-09-11T11:09:55.449Z,48.58
2022-09-11T11:10:55.439Z,48.86
2022-09-11T11:11:55.532Z,48.81
2022-09-11T11:12:55.675Z,47.97
2022-09-11T11:13:55.409Z,46.40
2022-09-11T11:14:55.470Z,46.31
2022-09-11T11:15:55.452Z,49.64
2022-09-11T11:16:55.403Z,49.77
2022-09-11T11:17:55.385Z,47.40
2022-09-11T11:18:55.354Z,46.03
2022-09-11T11:19:55.388Z,47.19
2022-09-11T11:20:55.331Z,45.97
2022-09-11T11:21:55.417Z,48.90
2022-09-11T11:22:55.311Z,48.71
2022-09-11T11:23:55.318Z,49.66
2022-09-11T11:24:55.668Z,52.88
2022-09-11T11:25:55.282Z,56.40
2022-09-11T11:26:55.277Z,58.27
2022-09-11T11:27:55.485Z,58.92
2022-09-11T11:28:55.471Z,60.97
2022-09-11T11:29:55.479Z,61.60
2022-09-11T11:30:55.512Z,63.98
2022-09-11T11:31:55.218Z,63.95
2022-09-11T11:32:55.230Z,66.74
2022-09-11T11:33:55.473Z,66.64
2022-09-11T11:34:55.250Z,66.44
2022-09-11T11:35:55.191Z,70.19
2022-09-11T11:36:55.160Z,66.57
2022-09-11T11:37:55.157Z,64.18
2022-09-11T11:38:55.510Z,64.06
2022-09-11T11:39:55.193Z,62.76
2022-09-11T11:40:55.122Z,62.16
2022-09-11T11:41:55.111Z,62.16
2022-09-11T11:42:56.345Z,61.27
2022-09-11T11:43:55.089Z,59.78
2022-09-11T11:44:55.107Z,60.74
2022-09-11T11:45:55.222Z,60.25
2022-09-11T11:46:55.055Z,59.18
2022-09-11T11:47:55.051Z,59.18
2022-09-11T11:48:55.060Z,62.40
2022-09-11T11:49:55.030Z,60.21
2022-09-11T11:50:55.015Z,59.41
2022-09-11T11:51:55.044Z,61.00
2022-09-11T11:52:54.993Z,61.30
2022-09-11T11:53:54.982Z,63.09
2022-09-11T11:54:54.987Z,64.88
2022-09-11T11:55:54.996Z,62.19
2022-09-11T11:56:54.948Z,59.98
2022-09-11T11:57:54.943Z,61.13
2022-09-11T11:58:54.924Z,59.31
2022-09-11T11:59:54.916Z,61.36
2022-09-11T12:00:55.496Z,60.69
2022-09-11T12:01:54.982Z,60.80
2022-09-11T12:02:54.884Z,59.61
2022-09-11T12:03:54.917Z,60.11
2022-09-11T12:04:54.884Z,58.62
2022-09-11T12:05:54.868Z,54.15
2022-09-11T12:06:54.858Z,52.69
2022-09-11T12:07:54.833Z,51.97
2022-09-11T12:08:54.829Z,50.06
2022-09-11T12:09:54.862Z,49.94
2022-09-11T12:10:54.800Z,48.80
2022-09-11T12:11:54.784Z,48.11
2022-09-11T12:12:54.775Z,47.60
2022-09-11T12:13:54.802Z,48.36
2022-09-11T12:14:54.810Z,49.57
2022-09-11T12:15:54.891Z,50.24
2022-09-11T12:16:54.756Z,48.63
2022-09-11T12:17:54.721Z,47.62
2022-09-11T12:18:54.873Z,48.90
2022-09-11T12:19:54.700Z,47.18
2022-09-11T12:20:54.713Z,46.84
2022-09-11T12:21:54.685Z,45.43
2022-09-11T12:22:54.669Z,46.25
2022-09-11T12:23:54.683Z,45.08
2022-09-11T12:24:54.650Z,45.75
2022-09-11T12:25:54.636Z,46.42
2022-09-11T12:26:54.632Z,46.42
2022-09-11T12:27:54.626Z,46.69
2022-09-11T12:28:54.611Z,46.78
2022-09-11T12:29:54.603Z,47.06
2022-09-11T12:30:54.649Z,46.84
2022-09-11T12:31:54.578Z,46.39
2022-09-11T12:32:54.584Z,47.00
2022-09-11T12:33:54.578Z,46.09
2022-09-11T12:34:54.543Z,46.00
2022-09-11T12:35:54.540Z,46.34
2022-09-11T12:36:54.556Z,43.66
2022-09-11T12:37:54.527Z,44.40
2022-09-11T12:38:54.524Z,43.38
2022-09-11T12:39:54.658Z,42.71
2022-09-11T12:40:54.618Z,42.07
2022-09-11T12:41:54.471Z,43.19
2022-09-11T12:42:54.466Z,43.46
2022-09-11T12:43:54.452Z,44.61
2022-09-11T12:44:54.447Z,45.36
2022-09-11T12:45:54.464Z,46.26
2022-09-11T12:46:54.422Z,47.89
2022-09-11T12:47:54.426Z,48.46
2022-09-11T12:49:17.889Z,47.25
2022-09-11T12:49:55.417Z,46.01
2022-09-11T12:50:54.379Z,46.29
2022-09-11T12:51:54.374Z,46.04
2022-09-11T12:52:54.386Z,44.15
2022-09-11T12:53:54.345Z,44.39
2022-09-11T12:54:54.345Z,44.91
2022-09-11T12:55:54.338Z,46.83
2022-09-11T12:56:54.325Z,46.53
2022-09-11T12:57:54.305Z,46.61
2022-09-11T12:58:54.502Z,46.59
2022-09-11T12:59:54.282Z,46.88